Time;durP1;ratioP1;P1;durP2;ratioP2;P2;SDS_P1;SDS_P2;PMS_P1;PMS_P2;Temp;Humidity;BMP_temperature;BMP_pressure;BME280_temperature;BME280_humidity;BME280_pressure;Samples;Min_cycle;Max_cycle;Signal;HPM_P1;HPM_P2
2023/05/19 00:02:19;;;;;;;8.20;7.10;;;;;;;24.13;39.73;99979.65;104112;1260;60097;-60
2023/05/19 00:04:47;;;;;;;;;;;;;;;24.15;39.28;99975.66;104415;1262;60082;-60
2023/05/19 00:07:15;;;;;;;;;;;;;;;24.18;39.32;99974.72;104455;1266;72970;-62
2023/05/19 00:09:42;;;;;;;6.80;6.10;;;;;;;24.17;39.21;99977.41;104327;1256;69204;-62
2023/05/19 00:12:11;;;;;;;6.80;6.20;;;;;;;24.13;39.34;99977.08;104343;1257;71914;-61
2023/05/19 00:14:38;;;;;;;6.60;6.10;;;;;;;24.11;39.78;99979.99;104456;1258;60503;-61
2023/05/19 00:17:05;;;;;;;11.40;6.30;;;;;;;24.07;40.09;99977.15;104441;1260;59403;-62
2023/05/19 00:19:32;;;;;;;;;;;;;;;24.04;40.05;99978.84;104390;1255;73022;-62
2023/05/19 00:21:59;;;;;;;6.90;6.30;;;;;;;24.09;40.17;99979.40;104403;1256;69104;-62
2023/05/19 00:24:26;;;;;;;6.90;6.30;;;;;;;23.99;39.96;99978.91;104518;1267;72735;-62
2023/05/19 00:26:53;;;;;;;7.10;6.40;;;;;;;23.94;39.85;99979.48;104297;1258;61055;-62
2023/05/19 00:29:21;;;;;;;7.60;6.90;;;;;;;23.95;39.88;99985.05;104373;1257;60403;-62
2023/05/19 00:31:47;;;;;;;7.50;6.60;;;;;;;23.98;40.07;99989.77;104330;1258;72401;-61
2023/05/19 00:34:14;;;;;;;8.80;7.00;;;;;;;23.98;40.03;99993.73;104383;1258;69285;-63
2023/05/19 00:36:42;;;;;;;8.30;7.60;;;;;;;23.96;40.09;99994.48;104213;1258;72212;-61
2023/05/19 00:39:09;;;;;;;8.90;7.80;;;;;;;23.96;39.95;99997.14;104311;1261;59757;-62
2023/05/19 00:41:36;;;;;;;8.40;7.60;;;;;;;23.98;39.98;99998.92;104421;1257;60754;-61
2023/05/19 00:44:03;;;;;;;7.40;6.70;;;;;;;24.04;39.82;99994.56;104352;1264;72344;-61
2023/05/19 00:46:30;;;;;;;8.70;7.70;;;;;;;24.04;39.69;99994.73;104394;1257;69750;-61
2023/05/19 00:48:57;;;;;;;8.40;7.60;;;;;;;24.02;39.93;99994.05;104319;1256;72932;-61
2023/05/19 00:51:25;;;;;;;7.60;6.70;;;;;;;24.02;40.17;99994.44;104431;1266;59732;-61
2023/05/19 00:53:52;;;;;;;8.20;7.00;;;;;;;24.04;39.96;99993.21;104380;1258;60640;-61
2023/05/19 00:56:20;;;;;;;9.90;6.80;;;;;;;24.00;39.91;99994.43;104422;1254;73050;-61
2023/05/19 00:58:49;;;;;;;8.60;7.90;;;;;;;24.00;39.99;99996.61;104309;1260;69042;-61
2023/05/19 01:01:20;;;;;;;10.00;7.90;;;;;;;24.01;40.19;99995.58;104379;1259;71906;-61
2023/05/19 01:03:47;;;;;;;8.50;7.70;;;;;;;23.99;40.28;99997.77;104499;1262;60287;-62
2023/05/19 01:06:14;;;;;;;8.20;6.90;;;;;;;23.99;40.22;99994.86;104256;1272;59763;-62
2023/05/19 01:08:42;;;;;;;8.80;7.20;;;;;;;24.01;40.18;99997.77;104403;1268;73109;-62
2023/05/19 01:11:09;;;;;;;8.70;7.20;;;;;;;24.02;40.20;100003.59;104464;1269;68719;-64
2023/05/19 01:13:37;;;;;;;;;;;;;;;24.02;40.29;100004.66;104404;1256;72911;-62
2023/05/19 01:16:20;;;;;;;7.40;6.40;;;;;;;24.06;40.28;100003.16;104239;1270;59744;-62
2023/05/19 01:19:00;;;;;;;7.60;6.50;;;;;;;24.01;40.38;100000.07;104450;1260;59977;-62
2023/05/19 01:21:59;;;;;;;7.30;6.60;;;;;;;24.02;40.61;100004.94;104478;1258;72536;-62
2023/05/19 01:24:31;;;;;;;8.30;6.70;;;;;;;24.09;40.83;100006.29;104369;1256;68701;-62
2023/05/19 01:27:04;;;;;;;8.30;6.50;;;;;;;24.11;40.87;100008.86;104229;1270;72737;-62
2023/05/19 01:29:37;;;;;;;8.20;6.30;;;;;;;24.11;41.00;100008.83;104377;1257;60271;-62
2023/05/19 01:32:04;;;;;;;8.20;5.70;;;;;;;24.12;40.89;100008.20;104309;1257;60461;-62
2023/05/19 01:34:33;;;;;;;7.10;5.80;;;;;;;24.14;40.86;100008.57;104402;1255;73936;-62
2023/05/19 01:37:02;;;;;;;6.50;5.90;;;;;;;24.18;40.80;100012.50;104289;1253;68714;-62
2023/05/19 01:39:30;;;;;;;6.90;6.00;;;;;;;24.20;40.94;100013.20;104263;1270;71667;-62
2023/05/19 01:41:57;;;;;;;6.80;6.00;;;;;;;24.21;41.10;100017.35;104348;1259;59766;-62
2023/05/19 01:44:24;;;;;;;8.30;5.40;;;;;;;24.24;40.73;100017.60;104364;1254;60213;-62
2023/05/19 01:46:51;;;;;;;6.70;5.80;;;;;;;24.24;41.06;100024.80;104291;1261;72809;-62
2023/05/19 01:49:18;;;;;;;9.40;5.90;;;;;;;24.20;41.19;100024.29;104363;1259;69007;-62
2023/05/19 01:51:45;;;;;;;9.30;5.40;;;;;;;24.21;41.20;100026.83;104323;1255;72617;-62
2023/05/19 01:54:12;;;;;;;6.00;5.40;;;;;;;24.22;41.17;100029.67;104313;1258;59818;-63
2023/05/19 01:56:44;;;;;;;7.30;4.90;;;;;;;24.23;41.30;100032.76;105086;1251;59791;-63
2023/05/19 01:59:19;;;;;;;5.20;4.70;;;;;;;24.26;41.69;100035.90;107847;1253;72600;-64
2023/05/19 02:01:53;;;;;;;4.90;4.40;;;;;;;24.29;41.82;100039.34;105393;1254;70238;-62
2023/05/19 02:04:29;;;;;;;9.10;5.40;;;;;;;24.27;42.03;100039.58;104388;1267;72833;-62
2023/05/19 02:07:03;;;;;;;4.70;4.30;;;;;;;24.22;42.62;100039.84;104640;1252;60149;-62
2023/05/19 02:09:49;;;;;;;5.70;4.40;;;;;;;24.17;42.84;100046.02;104484;1267;59762;-62
2023/05/19 02:12:36;;;;;;;5.40;4.40;;;;;;;24.18;42.83;100042.71;104786;1267;72686;-62
2023/05/19 02:15:09;;;;;;;5.50;5.00;;;;;;;24.16;43.08;100047.45;104534;1257;69907;-62
2023/05/19 02:17:40;;;;;;;5.20;4.60;;;;;;;24.14;43.25;100048.33;104366;1257;72870;-62
2023/05/19 02:20:09;;;;;;;4.60;4.20;;;;;;;24.07;43.55;100050.17;104420;1251;59833;-62
2023/05/19 02:22:37;;;;;;;5.30;4.80;;;;;;;24.10;43.44;100052.03;104474;1259;59653;-62
2023/05/19 02:25:07;;;;;;;6.60;4.40;;;;;;;24.11;43.63;100054.33;104444;1260;72687;-63
2023/05/19 02:27:35;;;;;;;4.30;3.90;;;;;;;24.11;44.37;100051.95;104372;1267;69634;-62
2023/05/19 02:30:03;;;;;;;5.10;4.10;;;;;;;24.14;44.75;100053.16;104330;1252;72815;-63
2023/05/19 02:32:31;;;;;;;5.30;3.90;;;;;;;24.14;44.75;100056.55;104364;1258;59656;-62
2023/05/19 02:34:59;;;;;;;4.40;3.90;;;;;;;24.14;44.92;100060.60;104389;1264;59314;-63
2023/05/19 02:37:27;;;;;;;4.30;3.90;;;;;;;24.16;44.74;100063.30;104364;1257;72616;-62
2023/05/19 02:39:54;;;;;;;4.10;3.60;;;;;;;24.16;45.18;100064.22;104479;1257;70193;-63
2023/05/19 02:42:21;;;;;;;5.40;3.80;;;;;;;24.18;45.42;100066.25;104365;1252;73193;-62
2023/05/19 02:44:48;;;;;;;5.00;4.00;;;;;;;24.19;45.23;100067.15;104343;1272;59855;-62
2023/05/19 02:47:15;;;;;;;3.80;3.50;;;;;;;24.22;45.45;100070.42;104480;1264;60423;-63
2023/05/19 02:49:42;;;;;;;5.10;3.70;;;;;;;24.21;45.41;100071.65;104447;1256;73537;-62
2023/05/19 02:52:10;;;;;;;5.80;3.90;;;;;;;24.25;45.48;100076.95;104295;1257;69904;-62
2023/05/19 02:54:38;;;;;;;4.50;3.50;;;;;;;24.25;45.60;100081.95;104528;1253;73043;-62
2023/05/19 02:57:05;;;;;;;4.30;3.80;;;;;;;24.25;46.25;100084.18;104310;1274;59782;-63
2023/05/19 02:59:32;;;;;;;8.40;3.70;;;;;;;24.24;46.41;100089.40;104378;1267;60018;-62
2023/05/19 03:02:00;;;;;;;6.10;3.60;;;;;;;24.27;46.47;100093.41;104339;1257;73465;-63
2023/05/19 03:04:28;;;;;;;8.00;3.60;;;;;;;24.29;46.57;100099.02;104358;1267;69322;-63
2023/05/19 03:06:56;;;;;;;4.40;3.50;;;;;;;24.29;46.71;100095.82;104406;1269;74101;-62
2023/05/19 03:09:23;;;;;;;;;;;;;;;24.30;46.73;100091.98;104335;1257;60446;-62
2023/05/19 03:11:51;;;;;;;6.00;3.60;;;;;;;24.33;47.53;100087.16;104459;1267;59809;-62
2023/05/19 03:14:22;;;;;;;6.10;3.90;;;;;;;24.30;47.10;100081.20;104416;1253;73296;-62
2023/05/19 03:16:49;;;;;;;3.40;3.10;;;;;;;24.33;47.55;100086.08;104420;1258;70292;-61
2023/05/19 03:19:17;;;;;;;3.60;3.30;;;;;;;24.38;47.30;100086.56;104610;1254;72450;-66
2023/05/19 03:21:45;;;;;;;3.60;3.20;;;;;;;24.38;47.62;100090.80;104388;1268;60564;-62
2023/05/19 03:24:12;;;;;;;3.60;3.10;;;;;;;24.41;47.51;100097.21;105064;1253;60455;-62
2023/05/19 03:26:39;;;;;;;3.40;3.10;;;;;;;24.38;47.99;100099.78;104699;1252;73585;-61
2023/05/19 03:29:06;;;;;;;4.50;3.50;;;;;;;24.40;48.24;100097.42;104387;1269;69084;-62
2023/05/19 03:31:35;;;;;;;4.80;3.10;;;;;;;24.51;48.10;100093.16;104570;1257;72549;-62
2023/05/19 03:34:03;;;;;;;5.00;3.20;;;;;;;24.56;47.57;100094.75;104294;1254;60559;-63
2023/05/19 03:36:31;;;;;;;3.90;3.60;;;;;;;24.56;47.76;100098.12;104300;1254;60998;-62
2023/05/19 03:38:59;;;;;;;3.90;3.50;;;;;;;24.59;48.21;100104.14;104384;1256;74043;-62
2023/05/19 03:41:26;;;;;;;3.40;3.10;;;;;;;24.57;47.63;100105.16;104463;1258;68639;-62
2023/05/19 03:43:54;;;;;;;5.20;3.50;;;;;;;24.53;48.17;100107.89;104393;1256;73155;-62
2023/05/19 03:46:21;;;;;;;3.40;3.10;;;;;;;24.52;48.21;100108.02;104344;1258;60525;-62
2023/05/19 03:48:54;;;;;;;3.90;3.20;;;;;;;24.50;48.69;100115.20;104396;1255;60499;-62
2023/05/19 03:51:30;;;;;;;4.40;3.20;;;;;;;24.51;49.48;100119.51;104436;1254;73736;-62
2023/05/19 03:54:06;;;;;;;3.90;3.50;;;;;;;24.46;49.92;100116.02;104260;1257;69649;-62
2023/05/19 03:56:37;;;;;;;4.40;3.80;;;;;;;24.42;49.65;100114.83;104520;1260;72094;-60
2023/05/19 03:59:09;;;;;;;4.00;3.10;;;;;;;24.40;50.37;100112.35;104293;1252;62259;-59
2023/05/19 04:01:36;;;;;;;3.50;3.20;;;;;;;24.39;49.76;100109.66;104358;1258;60478;-60
2023/05/19 04:04:03;;;;;;;8.50;3.50;;;;;;;24.39;50.44;100111.49;104291;1257;73567;-61
2023/05/19 04:06:30;;;;;;;4.90;3.20;;;;;;;24.42;50.31;100111.81;104389;1258;70577;-60
2023/05/19 04:08:58;;;;;;;;;;;;;;;24.44;50.19;100110.81;104360;1270;72834;-59
2023/05/19 04:11:25;;;;;;;4.70;3.30;;;;;;;24.48;51.12;100111.20;104409;1258;61011;-60
2023/05/19 04:13:52;;;;;;;3.20;2.90;;;;;;;24.44;50.64;100106.35;104254;1253;60508;-59
2023/05/19 04:16:20;;;;;;;5.80;3.30;;;;;;;24.48;50.63;100104.23;104447;1267;73779;-60
2023/05/19 04:18:47;;;;;;;3.30;3.00;;;;;;;24.51;50.35;100101.80;104433;1253;69868;-60
2023/05/19 04:21:14;;;;;;;3.70;2.80;;;;;;;24.55;50.27;100105.26;104476;1256;71537;-61
2023/05/19 04:23:41;;;;;;;5.30;3.30;;;;;;;24.56;50.57;100108.70;104696;1253;63506;-60
2023/05/19 04:26:08;;;;;;;6.40;2.90;;;;;;;24.58;50.11;100110.09;104449;1265;59796;-61
2023/05/19 04:28:38;;;;;;;4.30;3.00;;;;;;;24.61;50.25;100110.39;104479;1251;74431;-60
2023/05/19 04:31:09;;;;;;;3.70;2.90;;;;;;;24.65;50.36;100106.79;104510;1255;68528;-61
2023/05/19 04:33:37;;;;;;;6.00;2.90;;;;;;;24.69;50.28;100106.77;104452;1262;71889;-61
2023/05/19 04:36:07;;;;;;;;;;;;;;;24.71;50.11;100103.20;104427;1254;60764;-60
2023/05/19 04:38:35;;;;;;;3.00;2.60;;;;;;;24.75;50.04;100104.09;104457;1258;60512;-61
2023/05/19 04:41:03;;;;;;;6.60;3.00;;;;;;;24.70;50.18;100106.15;104579;1258;74785;-60
2023/05/19 04:43:33;;;;;;;4.50;2.90;;;;;;;24.73;50.21;100107.81;104444;1267;70408;-61
2023/05/19 04:46:00;;;;;;;3.00;2.80;;;;;;;24.69;50.44;100109.60;104523;1253;71875;-61
2023/05/19 04:48:29;;;;;;;3.40;3.10;;;;;;;24.71;50.54;100115.17;104530;1254;61062;-61
2023/05/19 04:50:57;;;;;;;3.30;3.00;;;;;;;24.75;50.74;100118.23;104624;1253;60487;-60
2023/05/19 04:53:24;;;;;;;3.50;2.80;;;;;;;24.74;51.02;100118.52;104409;1257;73598;-60
2023/05/19 04:55:51;;;;;;;3.10;2.50;;;;;;;24.73;51.90;100116.25;104818;1253;69075;-61
2023/05/19 04:58:18;;;;;;;6.20;2.90;;;;;;;24.76;52.36;100119.15;104503;1253;73479;-60
2023/05/19 05:00:47;;;;;;;2.80;2.60;;;;;;;24.80;51.98;100123.85;104258;1252;60542;-60
2023/05/19 05:03:15;;;;;;;3.30;3.00;;;;;;;24.81;51.68;100126.62;104655;1269;60019;-60
2023/05/19 05:05:42;;;;;;;7.10;3.00;;;;;;;24.84;51.98;100131.52;104681;1258;72954;-62
2023/05/19 05:08:10;;;;;;;3.00;2.70;;;;;;;24.76;52.47;100136.77;104458;1269;69953;-59
2023/05/19 05:10:41;;;;;;;3.20;2.90;;;;;;;24.79;52.45;100138.27;104700;1253;73430;-61
2023/05/19 05:13:08;;;;;;;3.40;3.10;;;;;;;24.82;52.45;100143.51;104577;1255;60593;-62
2023/05/19 05:15:38;;;;;;;3.30;2.80;;;;;;;24.86;53.17;100147.23;104876;1257;60428;-60
2023/05/19 05:18:06;;;;;;;;;;;;;;;24.84;52.77;100148.90;104371;1257;73932;-60
2023/05/19 05:20:34;;;;;;;3.60;2.40;;;;;;;24.84;52.36;100147.49;104375;1257;69824;-60
2023/05/19 05:23:02;;;;;;;5.20;2.50;;;;;;;24.79;52.13;100151.13;104495;1253;74072;-59
2023/05/19 05:25:30;;;;;;;2.90;2.70;;;;;;;24.79;51.74;100152.62;104411;1257;60526;-59
2023/05/19 05:27:58;;;;;;;4.70;3.00;;;;;;;24.78;51.71;100157.19;104340;1258;60559;-59
2023/05/19 05:30:29;;;;;;;2.60;2.40;;;;;;;24.79;52.28;100154.92;104309;1270;74298;-60
2023/05/19 05:32:57;;;;;;;3.10;2.40;;;;;;;24.81;53.43;100165.81;104405;1261;69068;-60
2023/05/19 05:35:37;;;;;;;4.30;2.80;;;;;;;24.81;53.19;100166.95;104355;1253;73577;-60
2023/05/19 05:38:05;;;;;;;3.10;2.60;;;;;;;24.90;53.78;100169.50;104336;1266;60883;-60
2023/05/19 05:40:32;;;;;;;2.70;2.50;;;;;;;24.92;54.88;100166.84;104269;1260;60925;-59
2023/05/19 05:42:59;;;;;;;6.50;2.40;;;;;;;24.94;54.91;100172.72;104465;1257;73506;-59
2023/05/19 05:45:28;;;;;;;3.90;3.10;;;;;;;24.96;54.61;100173.91;104285;1253;69986;-59
2023/05/19 05:47:56;;;;;;;2.80;2.60;;;;;;;24.99;54.10;100171.34;104290;1265;71818;-59
2023/05/19 05:50:23;;;;;;;3.20;2.90;;;;;;;25.00;54.01;100172.46;104371;1271;60552;-59
2023/05/19 05:52:51;;;;;;;2.60;2.40;;;;;;;25.00;53.42;100175.36;104350;1257;60559;-60
2023/05/19 05:55:19;;;;;;;3.50;2.70;;;;;;;25.02;53.33;100177.13;104173;1260;73772;-63
2023/05/19 05:57:47;;;;;;;3.70;2.70;;;;;;;25.05;54.07;100178.27;104275;1271;69657;-60
2023/05/19 06:00:16;;;;;;;3.10;2.60;;;;;;;25.07;52.92;100180.02;104323;1254;71794;-60
2023/05/19 06:02:46;;;;;;;4.90;3.20;;;;;;;25.10;52.41;100183.54;104356;1254;60543;-60
2023/05/19 06:05:13;;;;;;;3.10;2.80;;;;;;;25.13;52.17;100183.32;108215;1253;61700;-61
2023/05/19 06:07:41;;;;;;;4.10;3.00;;;;;;;25.11;52.85;100186.83;105877;1254;74381;-60
2023/05/19 06:10:08;;;;;;;5.30;2.90;;;;;;;25.10;52.67;100183.57;104338;1258;69231;-59
2023/05/19 06:12:39;;;;;;;;;;;;;;;25.14;51.72;100187.87;104352;1257;73199;-59
2023/05/19 06:15:07;;;;;;;4.10;3.00;;;;;;;25.22;51.21;100188.83;104447;1254;60578;-60
2023/05/19 06:17:49;;;;;;;8.30;4.50;;;;;;;25.22;51.31;100190.12;104399;1257;60456;-60
2023/05/19 06:20:17;;;;;;;3.50;3.10;;;;;;;25.27;50.82;100190.52;104442;1253;74435;-59
2023/05/19 06:22:44;;;;;;;3.30;2.60;;;;;;;25.28;50.56;100191.70;104375;1252;69312;-60
2023/05/19 06:25:12;;;;;;;5.90;2.70;;;;;;;25.33;50.81;100192.67;104316;1257;72249;-60
2023/05/19 06:27:40;;;;;;;4.40;3.20;;;;;;;25.40;50.48;100196.16;104449;1269;61017;-60
2023/05/19 06:30:08;;;;;;;3.00;2.70;;;;;;;25.43;50.23;100202.33;104456;1255;60031;-60
2023/05/19 06:32:44;;;;;;;2.90;2.70;;;;;;;25.47;49.95;100201.70;104331;1257;73245;-60
2023/05/19 06:35:12;;;;;;;4.20;2.70;;;;;;;25.48;50.51;100205.25;104357;1275;68593;-60
2023/05/19 06:37:39;;;;;;;6.00;2.90;;;;;;;25.50;50.37;100205.92;104438;1267;72515;-60
2023/05/19 06:40:07;;;;;;;5.30;3.20;;;;;;;25.54;49.82;100206.66;104359;1257;61081;-60
2023/05/19 06:42:34;;;;;;;;;;;;;;;25.54;49.58;100206.84;104327;1257;60430;-60
2023/05/19 06:45:14;;;;;;;3.20;2.30;;;;;;;25.59;49.68;100210.48;104360;1263;74201;-62
2023/05/19 06:47:43;;;;;;;3.10;2.80;;;;;;;25.59;49.72;100211.58;104400;1257;70253;-61
2023/05/19 06:50:10;;;;;;;3.10;2.60;;;;;;;25.62;49.45;100215.02;104394;1268;72659;-61
2023/05/19 06:52:39;;;;;;;3.10;2.80;;;;;;;25.63;49.92;100216.02;104417;1254;60639;-60
2023/05/19 06:55:07;;;;;;;3.30;2.80;;;;;;;25.64;49.97;100213.42;104503;1253;60466;-60
2023/05/19 06:57:35;;;;;;;3.10;2.80;;;;;;;25.65;50.64;100215.02;104374;1257;74297;-60
2023/05/19 07:00:04;;;;;;;6.50;2.70;;;;;;;25.66;51.45;100219.45;104301;1258;69932;-60
2023/05/19 07:02:32;;;;;;;3.10;2.80;;;;;;;25.68;51.68;100216.41;104439;1252;72913;-60
2023/05/19 07:04:59;;;;;;;3.90;2.90;;;;;;;25.70;51.76;100216.56;104280;1254;61379;-61
2023/05/19 07:07:26;;;;;;;3.30;2.70;;;;;;;25.75;52.79;100215.14;104440;1262;60563;-60
2023/05/19 07:09:55;;;;;;;4.20;2.60;;;;;;;25.80;52.41;100215.75;104379;1253;74112;-60
2023/05/19 07:12:25;;;;;;;3.70;2.70;;;;;;;25.80;52.34;100215.38;104387;1252;68378;-60
2023/05/19 07:14:53;;;;;;;10.70;3.30;;;;;;;25.84;50.97;100217.00;107207;1252;72936;-60
2023/05/19 07:17:20;;;;;;;6.50;3.30;;;;;;;25.89;50.86;100215.68;107248;1253;60721;-61
2023/05/19 07:19:47;;;;;;;3.20;2.90;;;;;;;25.92;50.87;100214.11;104580;1262;59440;-60
2023/05/19 07:22:15;;;;;;;8.20;3.10;;;;;;;25.98;51.14;100218.34;104364;1260;73996;-61
2023/05/19 07:24:42;;;;;;;4.00;3.00;;;;;;;26.07;51.02;100214.09;104714;1254;68707;-60
2023/05/19 07:27:09;;;;;;;4.50;3.00;;;;;;;26.13;51.06;100213.87;104695;1256;71706;-60
2023/05/19 07:29:36;;;;;;;5.90;3.50;;;;;;;26.20;50.84;100214.06;104379;1251;60889;-60
2023/05/19 07:32:03;;;;;;;4.80;3.20;;;;;;;26.27;50.12;100217.14;104298;1264;60495;-60
2023/05/19 07:34:30;;;;;;;3.30;2.90;;;;;;;26.35;49.64;100216.66;104500;1262;75278;-60
2023/05/19 07:36:57;;;;;;;7.20;3.20;;;;;;;26.40;49.38;100215.96;104547;1267;68728;-60
2023/05/19 07:39:28;;;;;;;4.90;3.50;;;;;;;26.47;49.45;100215.09;104397;1252;72932;-60
2023/05/19 07:41:55;;;;;;;5.20;3.50;;;;;;;26.55;49.51;100211.96;104422;1251;62360;-60
2023/05/19 07:44:22;;;;;;;3.60;2.80;;;;;;;26.62;49.14;100214.15;104406;1264;60482;-61
2023/05/19 07:46:49;;;;;;;5.80;3.60;;;;;;;26.69;48.75;100212.74;104482;1262;75470;-60
2023/05/19 07:49:16;;;;;;;3.50;3.00;;;;;;;26.73;48.23;100212.27;104577;1255;70680;-60
2023/05/19 07:51:43;;;;;;;5.60;3.10;;;;;;;26.80;48.15;100211.07;104547;1251;71874;-60
2023/05/19 07:54:11;;;;;;;5.90;3.40;;;;;;;26.86;48.10;100210.14;104354;1261;61712;-61
2023/05/19 07:56:38;;;;;;;4.40;3.30;;;;;;;26.93;48.25;100210.80;104465;1255;60357;-61
2023/05/19 07:59:06;;;;;;;4.00;3.30;;;;;;;27.03;48.55;100215.14;104388;1253;73210;-60
2023/05/19 08:01:34;;;;;;;6.30;3.10;;;;;;;27.12;48.34;100214.95;104622;1253;68651;-61
2023/05/19 08:04:01;;;;;;;4.30;3.20;;;;;;;27.21;47.13;100211.89;104386;1254;72338;-61
2023/05/19 08:06:28;;;;;;;4.00;3.20;;;;;;;27.27;46.78;100216.55;104491;1254;60550;-62
2023/05/19 08:08:55;;;;;;;8.40;3.50;;;;;;;27.34;47.81;100221.23;104436;1260;60553;-61
2023/05/19 08:11:22;;;;;;;5.30;3.50;;;;;;;27.33;46.43;100216.23;104368;1255;74032;-62
2023/05/19 08:13:50;;;;;;;5.40;3.40;;;;;;;27.40;46.68;100215.13;104416;1254;72185;-61
2023/05/19 08:16:17;;;;;;;5.50;3.40;;;;;;;27.54;46.64;100213.00;104579;1255;73382;-63
2023/05/19 08:18:44;;;;;;;4.20;3.10;;;;;;;27.73;45.43;100214.96;104446;1263;60592;-62
2023/05/19 08:21:13;;;;;;;5.10;3.20;;;;;;;27.97;44.83;100210.75;104374;1254;60555;-62
2023/05/19 08:23:40;;;;;;;5.10;3.20;;;;;;;28.24;44.21;100209.36;104388;1265;74117;-62
2023/05/19 08:26:07;;;;;;;4.30;3.50;;;;;;;28.49;44.06;100210.29;104369;1257;68404;-61
2023/05/19 08:28:34;;;;;;;3.50;3.20;;;;;;;28.71;43.72;100204.91;104333;1262;72238;-61
2023/05/19 08:31:01;;;;;;;3.90;3.40;;;;;;;28.86;42.59;100205.81;104264;1257;60811;-61
2023/05/19 08:33:29;;;;;;;3.80;3.50;;;;;;;29.01;42.23;100206.00;104296;1254;60556;-61
2023/05/19 08:35:56;;;;;;;4.60;3.50;;;;;;;29.12;42.23;100207.23;104359;1258;74371;-62
2023/05/19 08:38:25;;;;;;;3.70;3.30;;;;;;;29.21;41.50;100206.59;104362;1254;69019;-61
2023/05/19 08:40:52;;;;;;;3.70;3.30;;;;;;;29.26;41.49;100209.52;104345;1255;71667;-60
2023/05/19 08:43:19;;;;;;;7.30;3.10;;;;;;;29.23;41.07;100206.05;104493;1253;60559;-61
2023/05/19 08:45:47;;;;;;;3.30;3.00;;;;;;;29.26;41.09;100206.08;104441;1256;60506;-64
2023/05/19 08:48:15;;;;;;;5.30;2.80;;;;;;;29.32;40.71;100205.75;104357;1265;73403;-60
2023/05/19 08:51:04;;;;;;;3.30;3.00;;;;;;;29.43;40.35;100201.62;104336;1275;68860;-61
2023/05/19 08:53:42;;;;;;;5.40;3.10;;;;;;;29.56;40.36;100206.30;104215;1261;72901;-61
2023/05/19 08:56:11;;;;;;;3.90;3.60;;;;;;;29.71;39.79;100202.20;104480;1253;60829;-61
2023/05/19 08:58:40;;;;;;;4.10;3.40;;;;;;;29.86;39.46;100197.80;104326;1260;60195;-63
2023/05/19 09:01:07;;;;;;;3.60;3.30;;;;;;;29.93;38.27;100192.80;104388;1253;73469;-61
2023/05/19 09:03:37;;;;;;;3.70;3.40;;;;;;;30.03;38.16;100191.70;104271;1269;68819;-61
2023/05/19 09:06:08;;;;;;;5.20;3.10;;;;;;;30.12;38.50;100190.12;104356;1257;72980;-61
2023/05/19 09:08:36;;;;;;;3.50;3.30;;;;;;;30.18;37.93;100180.34;104377;1261;60563;-61
2023/05/19 09:11:03;;;;;;;3.50;3.10;;;;;;;30.26;37.97;100178.30;105402;1253;61162;-64
2023/05/19 09:13:30;;;;;;;3.40;3.00;;;;;;;30.41;37.08;100180.58;104709;1255;73037;-62
2023/05/19 09:15:57;;;;;;;4.10;3.60;;;;;;;30.54;37.17;100185.48;108373;1253;69819;-62
2023/05/19 09:18:25;;;;;;;3.00;2.80;;;;;;;30.66;37.21;100185.77;107042;1256;72545;-61
2023/05/19 09:21:01;;;;;;;3.40;3.10;;;;;;;30.73;37.23;100180.61;104556;1254;60551;-61
2023/05/19 09:23:34;;;;;;;4.70;3.30;;;;;;;30.79;37.09;100181.23;104524;1253;60480;-61
2023/05/19 09:26:03;;;;;;;3.20;3.00;;;;;;;30.79;36.89;100181.67;104509;1258;73318;-60
2023/05/19 09:28:32;;;;;;;3.10;2.80;;;;;;;30.80;36.56;100178.47;104433;1253;69372;-61
2023/05/19 09:31:02;;;;;;;3.90;3.50;;;;;;;30.81;37.00;100179.74;104372;1258;72084;-60
2023/05/19 09:33:32;;;;;;;3.60;3.30;;;;;;;30.79;37.06;100176.79;104327;1257;60491;-61
2023/05/19 09:35:59;;;;;;;3.70;3.40;;;;;;;30.78;37.09;100174.30;104326;1259;60481;-61
2023/05/19 09:38:26;;;;;;;3.60;3.30;;;;;;;30.77;36.93;100179.23;104294;1257;75089;-61
2023/05/19 09:40:57;;;;;;;3.40;3.10;;;;;;;30.78;37.13;100183.07;104378;1259;68804;-61
2023/05/19 09:43:32;;;;;;;3.20;3.00;;;;;;;30.76;37.09;100183.96;104354;1272;73041;-62
2023/05/19 09:46:02;;;;;;;3.40;3.00;;;;;;;30.76;36.35;100181.30;104367;1262;59638;-63
2023/05/19 09:48:29;;;;;;;4.00;3.70;;;;;;;30.69;36.83;100185.27;104424;1270;61122;-61
2023/05/19 09:50:56;;;;;;;3.90;3.50;;;;;;;30.56;36.73;100180.80;104407;1254;73799;-62
2023/05/19 09:53:24;;;;;;;;;;;;;;;30.51;37.18;100182.97;104357;1269;70352;-61
2023/05/19 09:55:56;;;;;;;;;;;;;;;30.43;37.06;100183.79;104469;1264;71932;-62
2023/05/19 09:58:24;;;;;;;5.10;3.30;;;;;;;30.33;37.61;100182.60;104396;1257;60532;-63
2023/05/19 10:00:53;;;;;;;4.50;3.50;;;;;;;30.21;38.06;100184.19;104331;1265;60459;-63
2023/05/19 10:03:22;;;;;;;5.10;3.80;;;;;;;30.22;38.26;100184.39;104517;1253;75031;-63
2023/05/19 10:05:49;;;;;;;6.70;3.60;;;;;;;30.39;38.59;100185.67;104433;1258;68987;-62
2023/05/19 10:08:16;;;;;;;5.80;4.00;;;;;;;30.50;38.28;100183.20;104489;1257;73075;-64
2023/05/19 10:10:47;;;;;;;9.40;3.80;;;;;;;30.50;38.06;100182.33;106900;1254;60560;-64
2023/05/19 10:13:15;;;;;;;4.10;3.70;;;;;;;30.68;37.79;100180.95;104305;1253;60738;-64
2023/05/19 10:15:42;;;;;;;4.10;3.80;;;;;;;30.85;37.37;100176.40;104429;1254;73423;-63
2023/05/19 10:18:26;;;;;;;3.80;3.50;;;;;;;30.90;37.10;100175.13;104414;1257;68622;-63
2023/05/19 10:20:53;;;;;;;4.10;3.70;;;;;;;31.00;36.97;100174.34;104384;1255;72328;-62
2023/05/19 10:23:21;;;;;;;5.80;3.60;;;;;;;31.00;36.28;100173.89;104325;1257;60736;-63
2023/05/19 10:25:48;;;;;;;4.50;4.00;;;;;;;30.90;36.45;100169.48;104335;1269;60663;-64
2023/05/19 10:28:16;;;;;;;5.00;4.40;;;;;;;31.00;36.79;100159.85;104385;1256;74081;-63
2023/05/19 10:30:47;;;;;;;4.60;4.20;;;;;;;31.06;37.26;100166.46;104269;1269;69343;-62
2023/05/19 10:33:16;;;;;;;4.40;3.90;;;;;;;31.23;36.71;100164.48;104381;1256;71845;-63
2023/05/19 10:35:55;;;;;;;7.80;3.90;;;;;;;31.26;36.64;100165.17;104352;1254;60501;-64
2023/05/19 10:38:55;;;;;;;11.10;3.90;;;;;;;31.40;36.23;100161.96;104400;1267;59903;-64
2023/05/19 10:41:44;;;;;;;3.90;3.50;;;;;;;31.61;35.93;100157.47;104243;1262;73926;-62
2023/05/19 10:44:32;;;;;;;5.40;3.40;;;;;;;31.73;34.77;100155.40;104312;1269;68587;-63
2023/05/19 10:46:58;;;;;;;5.40;3.80;;;;;;;31.74;34.49;100159.56;104459;1258;72832;-65
2023/05/19 10:49:25;;;;;;;3.80;3.50;;;;;;;31.72;34.08;100169.68;104316;1263;60553;-62
2023/05/19 10:51:55;;;;;;;5.30;3.10;;;;;;;31.68;33.65;100166.38;104549;1269;61177;-62
2023/05/19 10:54:42;;;;;;;3.80;3.50;;;;;;;31.59;34.25;100160.17;104372;1256;73201;-62
2023/05/19 10:57:13;;;;;;;6.30;3.50;;;;;;;31.58;34.10;100159.73;104380;1257;70048;-62
2023/05/19 10:59:40;;;;;;;5.50;3.40;;;;;;;31.57;33.59;100163.07;104395;1264;73444;-63
2023/05/19 11:02:07;;;;;;;7.10;3.60;;;;;;;31.46;33.85;100158.77;104415;1254;60568;-62
2023/05/19 11:04:46;;;;;;;;;;;;;;;31.37;34.31;100155.68;104297;1257;61135;-62
2023/05/19 11:07:18;;;;;;;4.00;3.00;;;;;;;31.38;34.54;100165.48;104191;1257;74523;-62
2023/05/19 11:09:51;;;;;;;6.60;3.40;;;;;;;31.30;34.23;100156.67;104384;1254;69183;-62
2023/05/19 11:12:22;;;;;;;7.00;3.90;;;;;;;31.21;34.66;100161.78;104390;1258;71741;-63
2023/05/19 11:14:52;;;;;;;3.30;3.00;;;;;;;31.21;34.55;100165.24;104371;1253;60906;-62
2023/05/19 11:17:22;;;;;;;4.90;3.40;;;;;;;31.28;34.47;100162.51;108376;1253;59585;-63
2023/05/19 11:19:53;;;;;;;5.30;3.20;;;;;;;31.36;34.35;100165.59;106369;1256;73356;-65
2023/05/19 11:22:24;;;;;;;4.40;3.10;;;;;;;31.35;33.98;100161.88;104632;1255;70406;-63
2023/05/19 11:26:43;;;;;;;3.10;2.80;;;;;;;30.57;35.74;100160.25;102129;1285;600951;-64
2023/05/19 11:29:10;;;;;;;6.80;2.90;;;;;;;31.40;34.39;100161.48;103839;1267;60720;-63
2023/05/19 11:31:37;;;;;;;4.50;3.00;;;;;;;31.52;34.51;100161.75;103613;1282;60726;-62
2023/05/19 11:34:06;;;;;;;3.60;2.40;;;;;;;31.59;34.29;100166.15;103399;1266;72292;-62